Time;durP1;ratioP1;P1;durP2;ratioP2;P2;SDS_P1;SDS_P2;PMS_P1;PMS_P2;Temp;Humidity;BMP_temperature;BMP_pressure;BME280_temperature;BME280_humidity;BME280_pressure;Samples;Min_cycle;Max_cycle;Signal;HPM_P1;HPM_P2
2022/05/10 00:00:32;;;;;;;;;26.25;25.25;;;;;23.13;40.78;101500.00;2069695;28;47297;-57
2022/05/10 00:01:36;;;;;;;;;26.80;26.80;;;;;23.12;41.03;101491.03;2086969;28;47613;-58
2022/05/10 00:02:37;;;;;;;;;23.00;21.40;;;;;23.11;40.94;101496.50;2083494;28;48109;-56
2022/05/10 00:03:38;;;;;;;;;24.50;22.75;;;;;23.10;40.99;101498.34;2095989;28;46536;-57
2022/05/10 00:04:39;;;;;;;;;24.20;24.20;;;;;;;;2088710;28;47996;-58
2022/05/10 00:05:41;;;;;;;;;22.60;22.40;;;;;;;;2088557;28;48087;-57
2022/05/10 00:06:44;;;;;;;;;20.40;20.20;;;;;23.07;41.29;101495.81;2093868;28;47519;-56
2022/05/10 00:07:45;;;;;;;;;23.40;23.40;;;;;23.05;41.17;101484.22;2091404;28;47707;-57
2022/05/10 00:08:45;;;;;;;;;29.25;27.50;;;;;23.05;41.06;101491.47;2084534;28;46241;-56
2022/05/10 00:09:46;;;;;;;;;31.25;28.75;;;;;23.03;41.30;101483.47;2087651;28;47394;-57
2022/05/10 00:10:46;;;;;;;;;28.00;24.00;;;;;23.05;41.16;101486.06;2091645;28;47392;-56
2022/05/10 00:11:48;;;;;;;;;23.25;21.75;;;;;23.03;41.09;101488.00;2090576;28;47899;-57
2022/05/10 00:12:49;;;;;;;;;26.60;26.40;;;;;23.04;41.12;101489.75;2088829;28;47801;-56
2022/05/10 00:13:49;;;;;;;;;25.00;25.00;;;;;23.03;41.49;101486.16;2088770;28;47416;-58
2022/05/10 00:14:50;;;;;;;;;25.50;25.50;;;;;23.01;41.28;101493.50;2087480;28;48146;-57
2022/05/10 00:15:51;;;;;;;;;25.75;24.50;;;;;23.01;41.47;101488.09;2090476;28;47749;-58
2022/05/10 00:16:52;;;;;;;;;26.80;25.00;;;;;23.00;41.67;101483.66;2082285;28;48045;-57
2022/05/10 00:17:52;;;;;;;;;25.00;25.00;;;;;22.99;41.51;101481.88;2095530;28;48107;-57
2022/05/10 00:18:53;;;;;;;;;22.50;22.25;;;;;23.00;41.41;101490.91;2087612;28;47650;-57
2022/05/10 00:19:54;;;;;;;;;23.00;22.50;;;;;23.00;41.30;101482.78;2087673;28;47638;-56
2022/05/10 00:20:54;;;;;;;;;22.50;22.25;;;;;22.99;41.40;101486.44;2087999;28;48498;-59
2022/05/10 00:21:55;;;;;;;;;24.75;24.25;;;;;22.98;41.22;101481.97;2088189;28;47017;-58
2022/05/10 00:22:55;;;;;;;;;24.25;23.00;;;;;22.98;41.61;101479.28;2088221;28;49100;-56
2022/05/10 00:23:56;;;;;;;;;25.75;23.75;;;;;22.98;41.70;101479.28;2082440;28;47457;-58
2022/05/10 00:24:56;;;;;;;;;22.25;21.00;;;;;22.97;41.52;101478.41;2087765;28;47368;-58
2022/05/10 00:25:57;;;;;;;;;26.25;24.75;;;;;22.96;41.50;101473.97;2088750;28;47106;-57
2022/05/10 00:26:57;;;;;;;;;23.75;22.75;;;;;22.96;41.41;101483.91;2087855;28;47438;-59
2022/05/10 00:28:00;;;;;;;;;22.75;21.75;;;;;22.95;41.61;101480.34;2091843;28;47449;-57
2022/05/10 00:29:01;;;;;;;;;25.80;22.00;;;;;22.94;41.63;101475.03;2090208;28;47726;-57
2022/05/10 00:30:04;;;;;;;;;21.80;21.80;;;;;22.93;41.60;101476.84;2094421;28;47525;-56
2022/05/10 00:31:05;;;;;;;;;26.80;24.40;;;;;22.93;41.57;101476.84;2089224;28;47264;-58
2022/05/10 00:32:06;;;;;;;;;23.20;23.20;;;;;22.93;41.88;101474.16;2086123;28;47996;-56
2022/05/10 00:33:09;;;;;;;;;23.25;23.25;;;;;22.92;41.60;101475.13;2080775;28;47858;-57
2022/05/10 00:34:09;;;;;;;;;20.20;19.40;;;;;22.93;41.94;101473.28;2088022;28;47683;-55
2022/05/10 00:35:17;;;;;;;;;25.00;24.00;;;;;22.92;41.73;101474.25;2086904;28;47820;-57
2022/05/10 00:36:21;;;;;;;;;24.60;23.40;;;;;22.91;41.38;101473.38;2091459;28;48280;-57
2022/05/10 00:37:23;;;;;;;;;24.20;22.40;;;;;22.92;41.87;101474.25;2072319;28;47693;-57
2022/05/10 00:38:30;;;;;;;;;26.80;26.80;;;;;22.90;41.89;101477.06;2069300;28;47743;-57
2022/05/10 00:39:31;;;;;;;;;21.80;21.20;;;;;22.90;42.04;101466.22;2088194;28;48145;-56
2022/05/10 00:40:35;;;;;;;;;24.75;24.50;;;;;22.90;41.77;101471.63;2086104;28;48031;-58
2022/05/10 00:41:56;;;;;;;;;20.00;20.00;;;;;22.88;42.07;101466.31;2083175;28;47940;-55
2022/05/10 00:43:03;;;;;;;;;25.20;25.20;;;;;22.88;42.17;101469.03;2087517;28;47715;-57
2022/05/10 00:44:17;;;;;;;;;22.20;21.60;;;;;22.87;41.99;101461.88;2088083;28;47814;-58
2022/05/10 00:45:44;;;;;;;;;27.40;24.60;;;;;22.87;41.99;101463.72;2090850;28;48273;-56
2022/05/10 00:47:02;;;;;;;;;26.40;23.60;;;;;22.85;41.63;101466.50;2061077;28;47545;-57
2022/05/10 00:48:14;;;;;;;;;25.80;25.00;;;;;22.85;42.02;101461.06;2053350;28;47885;-56
2022/05/10 00:49:25;;;;;;;;;22.80;22.80;;;;;22.84;42.03;101461.19;2044887;28;47987;-56
2022/05/10 00:50:50;;;;;;;;;21.60;21.60;;;;;22.83;42.02;101457.59;2054303;28;48186;-55
2022/05/10 00:52:03;;;;;;;;;27.60;24.80;;;;;22.82;41.83;101458.53;2063407;28;47667;-55
2022/05/10 00:53:11;;;;;;;;;21.60;20.60;;;;;22.83;42.35;101462.13;2062635;28;47719;-56
2022/05/10 00:54:34;;;;;;;;;22.60;21.00;;;;;22.82;42.11;101457.66;2061263;28;48050;-56
2022/05/10 00:55:54;;;;;;;;;25.20;25.00;;;;;22.80;42.25;101452.34;2056958;28;47656;-57
2022/05/10 00:57:07;;;;;;;;;20.80;20.60;;;;;22.79;42.17;101447.91;2056421;28;47823;-58
2022/05/10 00:58:21;;;;;;;;;25.00;25.00;;;;;22.79;42.46;101449.75;2062893;28;48112;-58
2022/05/10 00:59:32;;;;;;;;;25.60;25.00;;;;;22.78;42.21;101450.72;2062942;28;48250;-57
2022/05/10 01:00:33;;;;;;;;;26.40;26.40;;;;;22.76;42.40;101448.09;2060806;28;47658;-57
2022/05/10 01:01:36;;;;;;;;;23.80;23.40;;;;;22.74;42.29;101441.00;2050058;28;47820;-57
2022/05/10 01:02:45;;;;;;;;;22.80;21.80;;;;;22.73;42.18;101440.13;2045802;28;47771;-57
2022/05/10 01:04:01;;;;;;;;;27.60;25.60;;;;;22.72;42.51;101448.34;2055239;28;47986;-57
2022/05/10 01:05:14;;;;;;;;;25.40;25.40;;;;;22.71;42.34;101442.06;2061789;28;48152;-57
2022/05/10 01:06:39;;;;;;;;;28.60;26.80;;;;;22.71;42.93;101447.50;2062099;28;47794;-58
2022/05/10 01:07:58;;;;;;;;;27.40;26.20;;;;;22.70;42.41;101440.34;2064884;28;47599;-57
2022/05/10 01:09:06;;;;;;;;;23.60;22.40;;;;;22.69;42.49;101441.31;2061494;28;46473;-57
2022/05/10 01:10:13;;;;;;;;;24.40;24.40;;;;;22.68;42.63;101439.56;2065411;28;47803;-58
2022/05/10 01:11:22;;;;;;;;;26.60;26.20;;;;;22.68;42.41;101446.81;2060707;28;47666;-55
2022/05/10 01:12:36;;;;;;;;;24.00;24.00;;;;;22.67;42.59;101439.66;2060803;28;47255;-57
2022/05/10 01:13:49;;;;;;;;;27.20;27.00;;;;;22.67;42.79;101442.38;2062224;28;48049;-56
2022/05/10 01:15:01;;;;;;;;;26.60;25.00;;;;;22.66;42.36;101449.63;2060825;28;47599;-56
2022/05/10 01:16:12;;;;;;;;;27.40;24.00;;;;;22.65;42.47;101441.59;2071057;28;47614;-57
2022/05/10 01:17:12;;;;;;;;;23.40;23.40;;;;;22.65;42.76;101438.88;2067817;28;48247;-56
2022/05/10 01:18:22;;;;;;;;;23.50;22.25;;;;;22.64;42.88;101440.72;2056131;28;46356;-56
2022/05/10 01:19:23;;;;;;;;;25.20;25.20;;;;;22.62;42.86;101434.53;2055057;28;47938;-56
2022/05/10 01:20:33;;;;;;;;;23.50;23.25;;;;;22.63;42.62;101436.28;2059050;28;48344;-58
2022/05/10 01:22:05;;;;;;;;;24.20;24.20;;;;;22.61;43.18;101432.78;2062856;28;47864;-58
2022/05/10 01:23:20;;;;;;;;;27.00;24.40;;;;;22.60;43.24;101429.19;2025036;29;47776;-57
2022/05/10 01:24:31;;;;;;;;;21.20;21.20;;;;;22.59;42.93;101423.88;2029872;28;47699;-58
2022/05/10 01:25:37;;;;;;;;;23.00;23.00;;;;;22.59;42.95;101426.59;2046771;28;47608;-58
2022/05/10 01:26:52;;;;;;;;;29.20;27.40;;;;;22.57;43.09;101426.69;2044863;28;47392;-58
2022/05/10 01:28:17;;;;;;;;;21.80;19.20;;;;;22.57;42.93;101425.81;2049627;28;47305;-57
2022/05/10 01:29:30;;;;;;;;;27.60;24.00;;;;;22.55;42.68;101420.50;2049661;28;47762;-57
2022/05/10 01:30:31;;;;;;;;;26.20;25.80;;;;;22.56;42.75;101419.53;2047648;28;47964;-57
2022/05/10 01:31:39;;;;;;;;;25.20;24.80;;;;;22.55;43.09;101420.50;2046033;28;47848;-57
2022/05/10 01:34:28;;;;;;;;;25.60;24.40;;;;;22.56;43.30;101424.06;2046070;28;47557;-58
2022/05/10 01:35:33;;;;;;;;;23.25;22.25;;;;;22.56;43.04;101421.38;2056608;28;47670;-57
2022/05/10 01:36:46;;;;;;;;;24.00;24.00;;;;;22.56;42.96;101421.38;2052991;28;47361;-57
2022/05/10 01:37:53;;;;;;;;;22.20;22.20;;;;;22.55;42.95;101422.34;2046171;28;47700;-57
2022/05/10 01:39:28;;;;;;;;;21.60;21.00;;;;;22.56;42.81;101421.38;2046606;28;48170;-57
2022/05/10 01:40:31;;;;;;;;;20.60;20.60;;;;;22.56;42.57;101421.38;2044756;28;47767;-57
2022/05/10 01:41:43;;;;;;;;;23.60;22.20;;;;;22.56;43.22;101418.66;2045867;28;47672;-58
2022/05/10 01:42:50;;;;;;;;;20.20;18.60;;;;;22.55;42.76;101417.78;2044956;28;48102;-58
2022/05/10 01:44:00;;;;;;;;;22.00;22.00;;;;;22.55;42.80;101419.63;2044474;28;47900;-58
2022/05/10 01:45:09;;;;;;;;;21.20;20.40;;;;;22.54;42.99;101412.47;2047393;28;47058;-58
2022/05/10 01:46:16;;;;;;;;;23.60;21.20;;;;;22.54;43.27;101413.34;2048518;28;47334;-57
2022/05/10 01:47:26;;;;;;;;;20.00;18.40;;;;;22.53;42.68;101414.31;2047381;28;47755;-58
2022/05/10 01:48:33;;;;;;;;;24.40;23.00;;;;;22.52;43.29;101403.59;2044906;28;47314;-57
2022/05/10 01:49:40;;;;;;;;;23.00;21.20;;;;;22.53;43.28;101416.16;2045475;28;47788;-58
2022/05/10 01:51:02;;;;;;;;;23.20;22.60;;;;;22.51;42.96;101413.53;2044646;28;47797;-57
2022/05/10 01:52:18;;;;;;;;;23.60;21.20;;;;;22.49;43.12;101407.38;2048275;28;47877;-57
2022/05/10 01:53:20;;;;;;;;;22.00;22.00;;;;;22.48;43.30;101400.19;2048065;28;48220;-57
2022/05/10 01:54:38;;;;;;;;;20.80;19.80;;;;;22.48;43.33;101399.31;2046805;28;47350;-58
2022/05/10 01:55:44;;;;;;;;;22.80;21.20;;;;;22.47;43.29;101406.56;2053908;28;47966;-57
2022/05/10 01:56:44;;;;;;;;;22.40;22.40;;;;;22.47;43.10;101401.16;2052238;28;47939;-58
2022/05/10 01:57:45;;;;;;;;;23.00;23.00;;;;;22.46;43.51;101401.25;2046290;28;47672;-58
2022/05/10 01:58:46;;;;;;;;;22.50;22.50;;;;;22.45;43.08;101397.66;2045609;28;47691;-58
2022/05/10 01:59:53;;;;;;;;;23.00;22.20;;;;;22.45;43.38;101405.78;2048553;28;47825;-58
2022/05/10 02:01:00;;;;;;;;;24.60;22.00;;;;;22.45;43.37;101402.22;2066222;28;51119;-58
2022/05/10 02:02:05;;;;;;;;;20.40;20.40;;;;;22.44;43.00;101400.47;2091303;28;47674;-57
2022/05/10 02:03:18;;;;;;;;;22.20;21.20;;;;;22.43;43.47;101396.03;2084062;28;47732;-56
2022/05/10 02:04:27;;;;;;;;;19.80;19.80;;;;;22.42;43.44;101397.84;2085239;28;47849;-59
2022/05/10 02:05:40;;;;;;;;;21.40;21.00;;;;;22.41;43.66;101401.53;2081528;28;47557;-57
2022/05/10 02:06:49;;;;;;;;;21.00;20.80;;;;;22.40;43.43;101401.63;2086987;28;48248;-56
2022/05/10 02:07:53;;;;;;;;;21.00;20.60;;;;;22.40;43.74;101405.19;2090097;28;47527;-57
2022/05/10 02:09:18;;;;;;;;;24.00;23.20;;;;;22.39;43.57;101400.75;2086557;28;47847;-57
2022/05/10 02:10:29;;;;;;;;;22.00;22.00;;;;;22.39;43.22;101399.88;2088423;28;47615;-58
2022/05/10 02:11:33;;;;;;;;;20.20;20.20;;;;;22.38;43.63;101401.72;2088538;28;47712;-56
2022/05/10 02:12:59;;;;;;;;;22.00;21.80;;;;;22.37;43.40;101391.88;2086286;28;47642;-57
2022/05/10 02:14:04;;;;;;;;;20.20;20.20;;;;;22.37;43.34;101399.97;2082545;28;47753;-58
2022/05/10 02:15:15;;;;;;;;;22.60;21.20;;;;;22.38;43.29;101396.31;2087258;28;48105;-58
2022/05/10 02:16:23;;;;;;;;;23.20;22.40;;;;;22.37;43.59;101397.28;2089318;28;47987;-58
2022/05/10 02:17:32;;;;;;;;;20.00;19.00;;;;;22.38;43.28;101390.91;2090629;28;47868;-58
2022/05/10 02:18:41;;;;;;;;;24.80;22.60;;;;;22.37;43.95;101389.16;2086714;28;47436;-57
2022/05/10 02:19:49;;;;;;;;;19.80;19.80;;;;;22.38;43.65;101390.91;2086717;28;48094;-56
2022/05/10 02:20:58;;;;;;;;;21.60;20.60;;;;;22.39;43.46;101389.06;2085490;28;47700;-58
2022/05/10 02:22:07;;;;;;;;;23.20;22.40;;;;;22.38;43.39;101390.91;2086680;28;47515;-57
2022/05/10 02:23:18;;;;;;;;;21.60;19.40;;;;;22.38;43.46;101388.19;2082662;28;47891;-57
2022/05/10 02:24:26;;;;;;;;;21.80;20.80;;;;;22.39;43.77;101392.66;2084153;28;47499;-58
2022/05/10 02:25:33;;;;;;;;;19.00;18.60;;;;;22.39;43.34;101389.94;2087379;28;47792;-58
2022/05/10 02:26:40;;;;;;;;;20.60;20.00;;;;;22.39;43.34;101387.25;2086682;28;47730;-57
2022/05/10 02:27:46;;;;;;;;;18.60;18.60;;;;;22.39;43.77;101386.38;2090599;28;48118;-57
2022/05/10 02:29:06;;;;;;;;;19.40;19.40;;;;;22.39;43.38;101392.66;2085196;28;47864;-58
2022/05/10 02:30:12;;;;;;;;;19.60;18.60;;;;;22.38;43.42;101385.50;2081843;28;47804;-57
2022/05/10 02:31:20;;;;;;;;;19.00;18.80;;;;;22.37;43.10;101388.28;2084051;28;48645;-57
2022/05/10 02:33:55;;;;;;;;;22.60;20.00;;;;;22.37;43.49;101391.88;2096777;27;48362;-57
2022/05/10 02:34:56;;;;;;;;;16.00;16.00;;;;;22.37;43.13;101389.16;2086805;28;48530;-57
2022/05/10 02:35:59;;;;;;;;;19.80;19.80;;;;;22.37;43.45;101389.16;2080911;28;47595;-57
2022/05/10 02:37:00;;;;;;;;;21.20;20.60;;;;;22.38;43.54;101387.34;2080117;28;46445;-56
2022/05/10 02:38:00;;;;;;;;;19.25;18.00;;;;;22.38;43.41;101385.50;2091530;28;48049;-56
2022/05/10 02:39:00;;;;;;;;;21.25;21.25;;;;;22.38;43.49;101385.50;2086572;28;47575;-57
2022/05/10 02:40:03;;;;;;;;;22.25;21.75;;;;;22.39;43.36;101389.94;2081109;28;47325;-58
2022/05/10 02:41:12;;;;;;;;;20.20;19.40;;;;;22.38;43.49;101382.78;2087206;28;48325;-58
2022/05/10 02:42:15;;;;;;;;;21.80;21.80;;;;;22.39;43.75;101386.38;2088023;28;47603;-58
2022/05/10 02:43:20;;;;;;;;;24.00;22.60;;;;;22.39;43.34;101378.25;2094479;28;48094;-58
2022/05/10 02:44:20;;;;;;;;;25.20;24.00;;;;;22.38;43.29;101381.91;2087913;28;47858;-58
2022/05/10 02:45:21;;;;;;;;;24.50;22.50;;;;;22.38;43.33;101382.78;2089005;28;48212;-56
2022/05/10 02:46:22;;;;;;;;;20.75;20.75;;;;;22.37;43.51;101375.66;2086563;28;47633;-57
2022/05/10 02:47:35;;;;;;;;;19.80;19.80;;;;;22.38;43.42;101382.78;2088609;28;48372;-58
2022/05/10 02:48:36;;;;;;;;;21.20;19.20;;;;;22.37;43.42;101372.94;2089137;28;47365;-57
2022/05/10 02:49:39;;;;;;;;;21.40;20.40;;;;;22.38;43.83;101376.50;2086098;28;47859;-57
2022/05/10 02:50:39;;;;;;;;;21.20;19.80;;;;;22.37;43.52;101377.47;2085982;28;47733;-57
2022/05/10 02:51:40;;;;;;;;;21.25;20.75;;;;;22.37;43.48;101381.06;2090992;28;47777;-58
2022/05/10 02:52:40;;;;;;;;;23.50;22.25;;;;;22.37;43.89;101380.19;2085899;28;47759;-57
2022/05/10 02:53:41;;;;;;;;;20.75;19.75;;;;;22.37;43.89;101377.47;2094295;28;47512;-57
2022/05/10 02:54:41;;;;;;;;;19.50;19.50;;;;;22.38;43.44;101381.91;2086991;28;47747;-56
2022/05/10 02:55:53;;;;;;;;;20.25;20.25;;;;;22.37;43.89;101377.47;2083365;28;47293;-57
2022/05/10 02:56:54;;;;;;;;;18.80;18.80;;;;;22.36;43.39;101373.00;2087141;28;47500;-56
2022/05/10 02:58:00;;;;;;;;;20.00;20.00;;;;;22.37;43.70;101382.88;2088883;28;47787;-56
2022/05/10 02:59:11;;;;;;;;;20.80;20.60;;;;;22.36;43.44;101373.00;2086843;28;47548;-58
2022/05/10 03:00:12;;;;;;;;;20.60;20.60;;;;;22.36;43.72;101378.41;2089158;28;47876;-55
2022/05/10 03:01:34;;;;;;;;;22.00;21.00;;;;;22.36;44.03;101371.19;2089839;28;47537;-57
2022/05/10 03:02:41;;;;;;;;;20.60;20.00;;;;;22.36;43.42;101371.19;2086578;28;47768;-55
2022/05/10 03:03:41;;;;;;;;;19.80;19.80;;;;;22.36;44.08;101368.50;2079601;28;47684;-56
2022/05/10 03:04:50;;;;;;;;;21.20;21.20;;;;;22.36;43.98;101368.50;2085962;28;47608;-56
2022/05/10 03:05:52;;;;;;;;;21.40;21.40;;;;;22.36;44.02;101370.31;2088608;28;47334;-56
2022/05/10 03:06:53;;;;;;;;;19.60;18.60;;;;;22.36;44.06;101367.59;2080591;28;47243;-57
2022/05/10 03:07:53;;;;;;;;;21.25;20.75;;;;;22.36;43.49;101364.88;2088482;28;47666;-57
2022/05/10 03:08:55;;;;;;;;;22.75;22.75;;;;;22.36;43.71;101365.78;2086160;28;48258;-58
2022/05/10 03:09:56;;;;;;;;;20.40;20.40;;;;;22.35;44.10;101365.84;2092398;28;46091;-58
2022/05/10 03:10:56;;;;;;;;;22.50;22.50;;;;;22.34;43.97;101367.69;2084902;28;47420;-58
2022/05/10 03:11:57;;;;;;;;;21.00;21.00;;;;;22.33;44.19;101360.53;2080918;28;47484;-58
2022/05/10 03:12:57;;;;;;;;;22.25;21.50;;;;;22.33;43.67;101366.81;2088973;28;48349;-56
2022/05/10 03:13:58;;;;;;;;;21.75;20.00;;;;;22.35;44.00;101357.75;2087398;28;47556;-58
2022/05/10 03:14:59;;;;;;;;;20.00;18.80;;;;;22.35;43.75;101360.44;2086921;28;47518;-57
2022/05/10 03:16:00;;;;;;;;;20.25;20.25;;;;;22.34;43.87;101365.00;2088086;28;47984;-58
2022/05/10 03:17:03;;;;;;;;;21.00;18.60;;;;;22.33;43.97;101361.41;2085843;28;47638;-58
2022/05/10 03:18:04;;;;;;;;;20.60;18.60;;;;;22.33;44.07;101361.41;2089895;28;48155;-57
2022/05/10 03:19:04;;;;;;;;;20.75;20.75;;;;;22.32;44.19;101362.38;2086938;28;47791;-58
2022/05/10 03:20:05;;;;;;;;;20.00;20.00;;;;;22.31;44.25;101362.47;2086683;28;47293;-58
2022/05/10 03:21:05;;;;;;;;;22.25;22.00;;;;;22.31;43.74;101367.88;2087156;28;47335;-56
2022/05/10 03:22:07;;;;;;;;;23.25;22.75;;;;;22.29;44.40;101362.56;2083967;28;47463;-57
2022/05/10 03:23:07;;;;;;;;;20.80;20.80;;;;;22.29;44.27;101357.16;2085070;28;47601;-58
2022/05/10 03:24:08;;;;;;;;;21.00;21.00;;;;;22.28;44.34;101352.72;2082406;28;47574;-58
2022/05/10 03:25:09;;;;;;;;;27.25;23.50;;;;;22.29;44.05;101353.59;2087071;28;47419;-57
2022/05/10 03:26:11;;;;;;;;;22.75;22.75;;;;;22.29;43.96;101356.31;2087254;28;47724;-57
2022/05/10 03:27:12;;;;;;;;;21.40;21.40;;;;;22.28;44.28;101354.56;2087998;28;48146;-57
2022/05/10 03:28:12;;;;;;;;;24.00;23.40;;;;;22.28;44.21;101354.56;2089348;28;47570;-57
2022/05/10 03:29:13;;;;;;;;;22.25;22.25;;;;;22.27;44.19;101350.97;2091259;28;47748;-58
2022/05/10 03:30:13;;;;;;;;;23.50;23.00;;;;;22.27;43.98;101350.97;2089065;28;47609;-58
2022/05/10 03:31:16;;;;;;;;;21.50;21.50;;;;;22.27;44.37;101350.97;2084528;28;47271;-57
2022/05/10 03:32:17;;;;;;;;;22.40;20.60;;;;;22.26;43.98;101353.78;2082858;28;47222;-58
2022/05/10 03:33:18;;;;;;;;;23.25;21.25;;;;;22.26;44.35;101342.97;2087206;28;47639;-57
2022/05/10 03:35:38;;;;;;;;;19.20;19.20;;;;;22.24;44.09;101347.59;2091428;28;46081;-57
2022/05/10 03:36:39;;;;;;;;;21.00;20.00;;;;;22.24;44.20;101339.50;2085674;28;47415;-57
2022/05/10 03:37:39;;;;;;;;;23.25;21.25;;;;;22.23;44.33;101346.75;2094447;28;47370;-58
2022/05/10 03:38:40;;;;;;;;;20.75;20.75;;;;;22.22;44.67;101344.09;2073974;28;47075;-57
2022/05/10 03:39:40;;;;;;;;;24.75;22.50;;;;;22.22;44.31;101349.50;2077894;28;47236;-57
2022/05/10 03:40:41;;;;;;;;;9.50;9.50;;;;;22.21;44.07;101342.34;2085618;28;47902;-57
2022/05/10 03:41:41;;;;;;;;;25.00;22.00;;;;;22.20;44.29;101344.19;2087869;28;47999;-57
2022/05/10 03:42:50;;;;;;;;;24.00;22.75;;;;;22.20;44.31;101349.59;2085844;28;47517;-56
2022/05/10 03:43:50;;;;;;;;;25.40;25.00;;;;;22.18;44.08;101345.25;2088127;28;47506;-57
2022/05/10 03:44:52;;;;;;;;;21.25;21.25;;;;;22.17;44.35;101335.41;2085173;28;47979;-57
2022/05/10 03:45:53;;;;;;;;;20.00;19.60;;;;;22.16;44.49;101342.66;2093468;28;47303;-58
2022/05/10 03:46:54;;;;;;;;;23.75;23.00;;;;;22.15;44.15;101340.03;2085350;28;47701;-57
2022/05/10 03:47:55;;;;;;;;;20.20;20.20;;;;;22.15;43.92;101342.75;2081882;28;47335;-58
2022/05/10 03:48:55;;;;;;;;;22.25;22.25;;;;;22.14;44.66;101341.00;2084218;28;47528;-57
2022/05/10 03:49:56;;;;;;;;;22.50;22.50;;;;;22.14;44.01;101335.59;2073352;28;47529;-57
2022/05/10 03:50:56;;;;;;;;;21.75;21.75;;;;;22.13;44.15;101337.44;2076275;28;47608;-57
2022/05/10 03:51:57;;;;;;;;;23.25;22.50;;;;;22.13;44.65;101328.44;2085758;28;47270;-58
2022/05/10 03:52:57;;;;;;;;;23.25;22.75;;;;;22.13;44.59;101331.16;2082072;28;47462;-57
2022/05/10 03:53:58;;;;;;;;;21.75;21.00;;;;;22.12;44.72;101338.41;2091684;28;47669;-55
2022/05/10 03:54:58;;;;;;;;;23.25;21.75;;;;;22.12;44.29;101334.81;2085062;28;48010;-56
2022/05/10 03:55:59;;;;;;;;;21.75;21.75;;;;;22.11;44.15;101336.66;2084577;28;47629;-56
2022/05/10 03:56:59;;;;;;;;;26.00;25.00;;;;;22.11;44.58;101331.25;2086707;28;47560;-57
2022/05/10 03:58:03;;;;;;;;;26.80;25.80;;;;;22.10;44.23;101334.88;2086043;28;47795;-56
2022/05/10 03:59:03;;;;;;;;;20.40;20.40;;;;;22.10;44.66;101328.63;2086254;28;47991;-57
2022/05/10 04:00:09;;;;;;;;;21.25;21.25;;;;;22.11;44.51;101330.38;2089465;28;47572;-57
2022/05/10 04:01:09;;;;;;;;;22.60;22.60;;;;;22.11;44.09;101333.97;2085562;28;47713;-56
2022/05/10 04:02:12;;;;;;;;;23.25;22.25;;;;;22.11;44.46;101328.56;2089994;28;48026;-55
2022/05/10 04:03:12;;;;;;;;;22.20;21.20;;;;;22.09;44.26;101332.28;2083118;28;47884;-56
2022/05/10 04:04:13;;;;;;;;;17.50;17.50;;;;;22.09;44.33;101335.84;2083020;28;47589;-57
2022/05/10 04:05:14;;;;;;;;;22.75;22.25;;;;;22.10;44.11;101334.88;2086775;28;47664;-54
2022/05/10 04:06:16;;;;;;;;;22.80;21.80;;;;;22.09;44.21;101329.56;2087784;28;47648;-59
2022/05/10 04:07:16;;;;;;;;;23.60;23.60;;;;;22.08;44.24;101326.00;2087647;28;47396;-57
2022/05/10 04:08:16;;;;;;;;;18.00;18.00;;;;;22.10;44.52;101336.72;2090041;28;47508;-57
2022/05/10 04:09:17;;;;;;;;;21.00;21.00;;;;;22.09;44.67;101329.56;2091663;28;48303;-57
2022/05/10 04:10:19;;;;;;;;;24.75;23.00;;;;;22.08;44.71;101328.72;2088312;28;47158;-58
2022/05/10 04:11:20;;;;;;;;;18.40;18.40;;;;;22.09;44.44;101330.44;2084526;28;47806;-58
2022/05/10 04:12:20;;;;;;;;;22.25;21.25;;;;;22.10;44.43;101331.31;2084948;28;47458;-58
2022/05/10 04:13:21;;;;;;;;;21.00;21.00;;;;;22.09;44.47;101330.44;2086084;28;47732;-58
2022/05/10 04:14:21;;;;;;;;;24.00;23.25;;;;;22.09;44.37;101330.44;2089958;28;47506;-58
2022/05/10 04:15:21;;;;;;;;;22.00;20.00;;;;;22.09;44.46;101333.16;2088546;28;47505;-58
2022/05/10 04:16:22;;;;;;;;;20.50;20.50;;;;;22.09;44.48;101329.56;2095303;28;48020;-58
2022/05/10 04:17:22;;;;;;;;;24.00;22.50;;;;;22.07;44.76;101326.97;2092042;28;47688;-57
2022/05/10 04:18:23;;;;;;;;;23.75;22.25;;;;;22.08;44.60;101335.94;2091795;28;47681;-57
2022/05/10 04:19:24;;;;;;;;;21.25;21.25;;;;;22.08;44.52;101335.94;2089642;28;47614;-57
2022/05/10 04:20:24;;;;;;;;;21.60;20.00;;;;;22.07;44.42;101337.78;2087548;28;48046;-59
2022/05/10 04:21:25;;;;;;;;;24.75;24.75;;;;;22.08;44.59;101338.66;2092293;28;47860;-55
2022/05/10 04:22:25;;;;;;;;;18.75;18.75;;;;;22.08;44.27;101339.53;2090189;28;47495;-58
2022/05/10 04:23:26;;;;;;;;;26.75;25.00;;;;;22.09;44.23;101332.28;2090012;28;48263;-57
2022/05/10 04:24:26;;;;;;;;;23.25;22.50;;;;;22.09;44.12;101329.56;2092171;28;47491;-58
2022/05/10 04:25:27;;;;;;;;;22.50;22.50;;;;;22.09;44.25;101334.97;2088471;28;47858;-58
2022/05/10 04:26:27;;;;;;;;;26.25;24.50;;;;;22.08;44.71;101334.13;2092021;28;48030;-57
2022/05/10 04:27:28;;;;;;;;;25.00;25.00;;;;;22.08;44.18;101334.13;2091947;28;47720;-58
2022/05/10 04:28:28;;;;;;;;;21.75;21.00;;;;;22.08;44.28;101338.66;2088058;28;47384;-56
2022/05/10 04:29:29;;;;;;;;;22.50;22.00;;;;;22.07;44.35;101334.22;2089946;28;47946;-57
2022/05/10 04:30:29;;;;;;;;;21.25;21.25;;;;;22.06;44.34;101338.75;2088462;28;47700;-57
2022/05/10 04:31:29;;;;;;;;;22.00;19.50;;;;;22.05;44.14;101334.28;2082023;28;47124;-57
2022/05/10 04:32:30;;;;;;;;;22.50;20.50;;;;;22.06;44.38;101332.47;2090773;28;47967;-57
2022/05/10 04:33:31;;;;;;;;;23.50;23.25;;;;;22.05;44.07;101334.28;2088159;28;47361;-57
2022/05/10 04:34:31;;;;;;;;;22.00;21.50;;;;;22.05;44.35;101334.28;2092210;28;47485;-58
2022/05/10 04:35:32;;;;;;;;;20.75;19.75;;;;;22.04;44.63;101336.09;2098200;28;47464;-56
2022/05/10 04:36:33;;;;;;;;;23.00;23.00;;;;;22.05;44.34;101331.56;2102698;28;47665;-59
2022/05/10 04:37:34;;;;;;;;;23.60;20.80;;;;;22.05;44.35;101328.88;2092147;28;47407;-59
2022/05/10 04:38:34;;;;;;;;;25.25;25.25;;;;;22.06;44.42;101332.47;2090136;28;46531;-56
2022/05/10 04:42:13;;;;;;;;;22.80;22.80;;;;;22.06;44.48;101329.78;2092140;28;48036;-58
2022/05/10 04:43:14;;;;;;;;;26.50;23.75;;;;;22.05;44.08;101326.16;2087658;28;47760;-58
2022/05/10 04:44:14;;;;;;;;;22.25;21.25;;;;;22.04;43.97;101328.00;2087213;28;47409;-57
2022/05/10 04:45:15;;;;;;;;;18.50;18.50;;;;;22.06;44.35;101327.06;2091979;28;47744;-58
2022/05/10 04:46:16;;;;;;;;;19.50;19.50;;;;;22.06;44.04;101325.22;2086866;28;47842;-59
2022/05/10 04:47:16;;;;;;;;;18.50;18.50;;;;;22.07;44.63;101326.97;2088876;28;47677;-58
2022/05/10 04:48:16;;;;;;;;;22.25;22.25;;;;;22.09;44.30;101326.88;2090035;28;47425;-58
2022/05/10 04:49:17;;;;;;;;;18.75;18.75;;;;;22.08;44.45;101328.72;2096690;28;47977;-57
2022/05/10 04:50:17;;;;;;;;;23.00;22.00;;;;;22.09;44.53;101330.44;2094379;28;47903;-58
2022/05/10 04:51:18;;;;;;;;;21.25;20.25;;;;;22.09;44.55;101326.88;2094597;28;47717;-58
2022/05/10 04:52:19;;;;;;;;;24.50;24.25;;;;;22.10;44.34;101328.63;2096734;28;47758;-58
2022/05/10 04:53:19;;;;;;;;;20.00;20.00;;;;;22.10;44.47;101332.19;2094483;28;47556;-60
2022/05/10 04:54:20;;;;;;;;;28.50;27.00;;;;;22.11;43.89;101331.25;2095300;28;47922;-56
2022/05/10 04:55:20;;;;;;;;;25.75;20.25;;;;;22.10;44.58;101328.63;2094218;28;47515;-57
2022/05/10 04:56:21;;;;;;;;;22.50;22.50;;;;;22.12;44.65;101329.41;2078985;28;47661;-56
2022/05/10 04:57:22;;;;;;;;;24.40;21.20;;;;;22.10;44.10;101329.47;2087012;28;47865;-56
2022/05/10 04:58:22;;;;;;;;;19.75;19.75;;;;;22.11;43.89;101327.69;2094453;28;47436;-58
2022/05/10 04:59:23;;;;;;;;;24.75;24.00;;;;;22.11;43.94;101331.25;2094359;28;47898;-57
2022/05/10 05:00:24;;;;;;;;;22.25;21.75;;;;;22.10;44.41;101334.88;2093271;28;47449;-58
2022/05/10 05:01:28;;;;;;;;;18.80;18.80;;;;;22.10;44.09;101336.72;2087469;28;47635;-58